sensor_id;sensor_type;location;lat;lon;timestamp;P1;durP1;ratioP1;P2;durP2;ratioP2
4389;SDS011;2209;48.982;8.406;2023-08-12T00:02:08;5.20;;;4.70;;
4389;SDS011;2209;48.982;8.406;2023-08-12T00:04:30;4.80;;;4.40;;
4389;SDS011;2209;48.982;8.406;2023-08-12T00:06:53;5.33;;;4.87;;
4389;SDS011;2209;48.982;8.406;2023-08-12T00:09:15;6.43;;;5.03;;
4389;SDS011;2209;48.982;8.406;2023-08-12T00:11:39;5.40;;;4.00;;
4389;SDS011;2209;48.982;8.406;2023-08-12T00:14:02;6.10;;;4.80;;
4389;SDS011;2209;48.982;8.406;2023-08-12T00:16:24;5.70;;;4.53;;
4389;SDS011;2209;48.982;8.406;2023-08-12T00:18:46;5.00;;;4.60;;
4389;SDS011;2209;48.982;8.406;2023-08-12T00:21:08;4.20;;;3.90;;
4389;SDS011;2209;48.982;8.406;2023-08-12T00:23:31;5.27;;;4.87;;
4389;SDS011;2209;48.982;8.406;2023-08-12T00:25:57;5.70;;;5.20;;
4389;SDS011;2209;48.982;8.406;2023-08-12T00:28:21;6.03;;;5.20;;
4389;SDS011;2209;48.982;8.406;2023-08-12T00:30:43;6.20;;;5.60;;
4389;SDS011;2209;48.982;8.406;2023-08-12T00:33:05;5.00;;;4.60;;
4389;SDS011;2209;48.982;8.406;2023-08-12T00:35:27;13.47;;;4.67;;
4389;SDS011;2209;48.982;8.406;2023-08-12T00:37:49;5.77;;;5.20;;
4389;SDS011;2209;48.982;8.406;2023-08-12T00:40:12;5.50;;;5.00;;
4389;SDS011;2209;48.982;8.406;2023-08-12T00:42:34;6.83;;;6.10;;
4389;SDS011;2209;48.982;8.406;2023-08-12T00:44:58;8.73;;;7.10;;
4389;SDS011;2209;48.982;8.406;2023-08-12T00:47:20;7.43;;;6.77;;
4389;SDS011;2209;48.982;8.406;2023-08-12T00:49:42;6.90;;;6.30;;
4389;SDS011;2209;48.982;8.406;2023-08-12T00:52:06;5.93;;;5.50;;
4389;SDS011;2209;48.982;8.406;2023-08-12T00:54:28;7.47;;;6.80;;
4389;SDS011;2209;48.982;8.406;2023-08-12T00:56:50;6.30;;;5.70;;
4389;SDS011;2209;48.982;8.406;2023-08-12T00:59:14;7.10;;;6.50;;
4389;SDS011;2209;48.982;8.406;2023-08-12T01:01:40;5.90;;;5.43;;
4389;SDS011;2209;48.982;8.406;2023-08-12T01:04:03;5.67;;;4.90;;
4389;SDS011;2209;48.982;8.406;2023-08-12T01:06:26;7.20;;;5.07;;
4389;SDS011;2209;48.982;8.406;2023-08-12T01:08:48;5.63;;;5.10;;
4389;SDS011;2209;48.982;8.406;2023-08-12T01:11:12;5.67;;;5.27;;
4389;SDS011;2209;48.982;8.406;2023-08-12T01:13:41;6.30;;;5.80;;
4389;SDS011;2209;48.982;8.406;2023-08-12T01:16:08;6.40;;;5.90;;
4389;SDS011;2209;48.982;8.406;2023-08-12T01:18:35;6.80;;;6.20;;
4389;SDS011;2209;48.982;8.406;2023-08-12T01:21:00;7.07;;;6.37;;
4389;SDS011;2209;48.982;8.406;2023-08-12T01:23:25;6.97;;;6.40;;
4389;SDS011;2209;48.982;8.406;2023-08-12T01:25:47;7.77;;;7.17;;
4389;SDS011;2209;48.982;8.406;2023-08-12T01:28:10;7.00;;;6.40;;
4389;SDS011;2209;48.982;8.406;2023-08-12T01:30:32;8.20;;;7.00;;
4389;SDS011;2209;48.982;8.406;2023-08-12T01:32:57;7.33;;;6.63;;
4389;SDS011;2209;48.982;8.406;2023-08-12T01:35:25;7.30;;;6.70;;
4389;SDS011;2209;48.982;8.406;2023-08-12T01:37:52;7.60;;;6.90;;
4389;SDS011;2209;48.982;8.406;2023-08-12T01:40:16;8.03;;;7.33;;
4389;SDS011;2209;48.982;8.406;2023-08-12T01:42:40;7.03;;;6.33;;
4389;SDS011;2209;48.982;8.406;2023-08-12T01:45:02;6.50;;;5.90;;
4389;SDS011;2209;48.982;8.406;2023-08-12T01:47:26;6.93;;;6.20;;
4389;SDS011;2209;48.982;8.406;2023-08-12T01:49:48;6.23;;;5.77;;
4389;SDS011;2209;48.982;8.406;2023-08-12T01:52:10;13.53;;;6.40;;
4389;SDS011;2209;48.982;8.406;2023-08-12T01:54:32;6.10;;;5.50;;
4389;SDS011;2209;48.982;8.406;2023-08-12T01:56:56;8.50;;;5.40;;
4389;SDS011;2209;48.982;8.406;2023-08-12T01:59:17;6.00;;;5.27;;
4389;SDS011;2209;48.982;8.406;2023-08-12T02:01:39;6.20;;;5.60;;
4389;SDS011;2209;48.982;8.406;2023-08-12T02:04:01;5.67;;;5.10;;
4389;SDS011;2209;48.982;8.406;2023-08-12T02:06:23;5.73;;;5.00;;
4389;SDS011;2209;48.982;8.406;2023-08-12T02:08:45;6.23;;;5.47;;
4389;SDS011;2209;48.982;8.406;2023-08-12T02:11:08;5.23;;;4.67;;
4389;SDS011;2209;48.982;8.406;2023-08-12T02:13:31;6.17;;;5.57;;
4389;SDS011;2209;48.982;8.406;2023-08-12T02:15:53;5.70;;;5.10;;
4389;SDS011;2209;48.982;8.406;2023-08-12T02:18:15;5.23;;;4.83;;
4389;SDS011;2209;48.982;8.406;2023-08-12T02:20:37;5.87;;;5.47;;
4389;SDS011;2209;48.982;8.406;2023-08-12T02:23:01;4.97;;;4.57;;
4389;SDS011;2209;48.982;8.406;2023-08-12T02:25:23;4.93;;;4.53;;
4389;SDS011;2209;48.982;8.406;2023-08-12T02:27:46;5.60;;;5.07;;
4389;SDS011;2209;48.982;8.406;2023-08-12T02:30:09;4.87;;;4.47;;
4389;SDS011;2209;48.982;8.406;2023-08-12T02:32:33;5.90;;;5.30;;
4389;SDS011;2209;48.982;8.406;2023-08-12T02:34:55;6.30;;;5.10;;
4389;SDS011;2209;48.982;8.406;2023-08-12T02:37:17;5.27;;;4.87;;
4389;SDS011;2209;48.982;8.406;2023-08-12T02:39:39;5.20;;;4.80;;
4389;SDS011;2209;48.982;8.406;2023-08-12T02:42:01;7.43;;;5.50;;
4389;SDS011;2209;48.982;8.406;2023-08-12T02:44:23;4.80;;;4.50;;
4389;SDS011;2209;48.982;8.406;2023-08-12T02:46:47;5.40;;;5.10;;
4389;SDS011;2209;48.982;8.406;2023-08-12T02:49:09;7.40;;;6.10;;
4389;SDS011;2209;48.982;8.406;2023-08-12T02:51:31;5.63;;;5.00;;
4389;SDS011;2209;48.982;8.406;2023-08-12T02:53:53;5.87;;;5.40;;
4389;SDS011;2209;48.982;8.406;2023-08-12T02:56:15;7.20;;;4.80;;
4389;SDS011;2209;48.982;8.406;2023-08-12T02:58:37;4.90;;;4.40;;
4389;SDS011;2209;48.982;8.406;2023-08-12T03:01:00;6.10;;;5.60;;
4389;SDS011;2209;48.982;8.406;2023-08-12T03:03:25;6.30;;;5.00;;
4389;SDS011;2209;48.982;8.406;2023-08-12T03:05:48;7.07;;;4.97;;
4389;SDS011;2209;48.982;8.406;2023-08-12T03:08:10;5.13;;;4.73;;
4389;SDS011;2209;48.982;8.406;2023-08-12T03:10:33;4.87;;;4.50;;
4389;SDS011;2209;48.982;8.406;2023-08-12T03:12:55;5.57;;;5.07;;
4389;SDS011;2209;48.982;8.406;2023-08-12T03:15:17;6.33;;;5.83;;
4389;SDS011;2209;48.982;8.406;2023-08-12T03:17:39;5.10;;;4.80;;
4389;SDS011;2209;48.982;8.406;2023-08-12T03:20:03;5.20;;;4.80;;
4389;SDS011;2209;48.982;8.406;2023-08-12T03:22:29;6.33;;;5.30;;
4389;SDS011;2209;48.982;8.406;2023-08-12T03:24:51;5.50;;;5.10;;
4389;SDS011;2209;48.982;8.406;2023-08-12T03:27:13;8.63;;;4.73;;
4389;SDS011;2209;48.982;8.406;2023-08-12T03:29:35;5.87;;;5.37;;
4389;SDS011;2209;48.982;8.406;2023-08-12T03:31:57;5.33;;;4.93;;
4389;SDS011;2209;48.982;8.406;2023-08-12T03:34:19;5.40;;;5.00;;
4389;SDS011;2209;48.982;8.406;2023-08-12T03:36:43;5.60;;;5.10;;
4389;SDS011;2209;48.982;8.406;2023-08-12T03:39:06;4.33;;;4.03;;
4389;SDS011;2209;48.982;8.406;2023-08-12T03:41:28;5.20;;;4.70;;
4389;SDS011;2209;48.982;8.406;2023-08-12T03:43:51;4.47;;;4.17;;
4389;SDS011;2209;48.982;8.406;2023-08-12T03:46:13;5.60;;;5.10;;
4389;SDS011;2209;48.982;8.406;2023-08-12T03:48:35;5.13;;;4.20;;
4389;SDS011;2209;48.982;8.406;2023-08-12T03:50:57;5.17;;;4.77;;
4389;SDS011;2209;48.982;8.406;2023-08-12T03:53:20;6.53;;;5.67;;
4389;SDS011;2209;48.982;8.406;2023-08-12T03:55:43;9.30;;;5.37;;
4389;SDS011;2209;48.982;8.406;2023-08-12T03:58:05;5.53;;;5.03;;
4389;SDS011;2209;48.982;8.406;2023-08-12T04:00:27;5.57;;;5.07;;
4389;SDS011;2209;48.982;8.406;2023-08-12T04:02:49;5.13;;;4.63;;
4389;SDS011;2209;48.982;8.406;2023-08-12T04:05:12;6.90;;;4.73;;
4389;SDS011;2209;48.982;8.406;2023-08-12T04:07:35;5.47;;;4.90;;
4389;SDS011;2209;48.982;8.406;2023-08-12T04:10:02;5.03;;;4.63;;
4389;SDS011;2209;48.982;8.406;2023-08-12T04:12:24;5.37;;;4.87;;
4389;SDS011;2209;48.982;8.406;2023-08-12T04:14:46;10.20;;;4.50;;
4389;SDS011;2209;48.982;8.406;2023-08-12T04:17:08;5.13;;;4.67;;
4389;SDS011;2209;48.982;8.406;2023-08-12T04:19:31;4.63;;;4.27;;
4389;SDS011;2209;48.982;8.406;2023-08-12T04:21:53;4.77;;;4.27;;
4389;SDS011;2209;48.982;8.406;2023-08-12T04:24:15;5.93;;;5.43;;
4389;SDS011;2209;48.982;8.406;2023-08-12T04:26:39;5.60;;;4.80;;
4389;SDS011;2209;48.982;8.406;2023-08-12T04:29:01;5.30;;;4.90;;
4389;SDS011;2209;48.982;8.406;2023-08-12T04:31:23;4.80;;;4.50;;
4389;SDS011;2209;48.982;8.406;2023-08-12T04:33:45;4.80;;;4.00;;
4389;SDS011;2209;48.982;8.406;2023-08-12T04:36:07;5.50;;;5.00;;
4389;SDS011;2209;48.982;8.406;2023-08-12T04:38:29;6.27;;;4.77;;
4389;SDS011;2209;48.982;8.406;2023-08-12T04:40:52;7.93;;;4.80;;
4389;SDS011;2209;48.982;8.406;2023-08-12T04:43:16;4.90;;;4.40;;
4389;SDS011;2209;48.982;8.406;2023-08-12T04:45:38;5.53;;;5.03;;
4389;SDS011;2209;48.982;8.406;2023-08-12T04:48:00;5.10;;;4.60;;
4389;SDS011;2209;48.982;8.406;2023-08-12T04:50:22;8.27;;;5.10;;
4389;SDS011;2209;48.982;8.406;2023-08-12T04:52:44;7.90;;;4.90;;
4389;SDS011;2209;48.982;8.406;2023-08-12T04:55:07;6.73;;;4.90;;
4389;SDS011;2209;48.982;8.406;2023-08-12T04:57:31;6.23;;;4.90;;
4389;SDS011;2209;48.982;8.406;2023-08-12T04:59:58;4.87;;;4.47;;
4389;SDS011;2209;48.982;8.406;2023-08-12T05:02:30;6.13;;;4.77;;
4389;SDS011;2209;48.982;8.406;2023-08-12T05:04:53;5.13;;;4.63;;
4389;SDS011;2209;48.982;8.406;2023-08-12T05:07:15;4.93;;;4.50;;
4389;SDS011;2209;48.982;8.406;2023-08-12T05:09:37;5.17;;;4.77;;
4389;SDS011;2209;48.982;8.406;2023-08-12T05:11:59;5.50;;;4.40;;
4389;SDS011;2209;48.982;8.406;2023-08-12T05:14:21;4.90;;;4.40;;
4389;SDS011;2209;48.982;8.406;2023-08-12T05:16:45;9.40;;;4.60;;
4389;SDS011;2209;48.982;8.406;2023-08-12T05:19:07;5.37;;;4.87;;
4389;SDS011;2209;48.982;8.406;2023-08-12T05:21:29;5.33;;;4.73;;
4389;SDS011;2209;48.982;8.406;2023-08-12T05:23:51;5.90;;;5.10;;
4389;SDS011;2209;48.982;8.406;2023-08-12T05:26:13;5.70;;;5.10;;
4389;SDS011;2209;48.982;8.406;2023-08-12T05:28:35;4.83;;;4.50;;
4389;SDS011;2209;48.982;8.406;2023-08-12T05:30:57;5.13;;;4.63;;
4389;SDS011;2209;48.982;8.406;2023-08-12T05:33:21;4.93;;;4.53;;
4389;SDS011;2209;48.982;8.406;2023-08-12T05:35:46;5.30;;;4.80;;
4389;SDS011;2209;48.982;8.406;2023-08-12T05:38:08;6.10;;;5.07;;
4389;SDS011;2209;48.982;8.406;2023-08-12T05:40:30;4.80;;;4.40;;
4389;SDS011;2209;48.982;8.406;2023-08-12T05:42:53;5.47;;;5.03;;
4389;SDS011;2209;48.982;8.406;2023-08-12T05:45:15;5.33;;;4.83;;
4389;SDS011;2209;48.982;8.406;2023-08-12T05:47:37;5.17;;;4.70;;
4389;SDS011;2209;48.982;8.406;2023-08-12T05:50:00;4.83;;;4.53;;
4389;SDS011;2209;48.982;8.406;2023-08-12T05:52:23;5.07;;;4.57;;
4389;SDS011;2209;48.982;8.406;2023-08-12T05:54:45;5.90;;;5.40;;
4389;SDS011;2209;48.982;8.406;2023-08-12T05:57:07;4.90;;;4.60;;
4389;SDS011;2209;48.982;8.406;2023-08-12T05:59:29;5.20;;;4.80;;
4389;SDS011;2209;48.982;8.406;2023-08-12T06:01:51;6.70;;;4.70;;
4389;SDS011;2209;48.982;8.406;2023-08-12T06:04:13;5.73;;;4.60;;
4389;SDS011;2209;48.982;8.406;2023-08-12T06:06:36;5.67;;;5.17;;
4389;SDS011;2209;48.982;8.406;2023-08-12T06:08:58;5.63;;;5.10;;
4389;SDS011;2209;48.982;8.406;2023-08-12T06:11:20;5.80;;;5.30;;
4389;SDS011;2209;48.982;8.406;2023-08-12T06:13:43;5.87;;;5.20;;
4389;SDS011;2209;48.982;8.406;2023-08-12T06:16:05;6.20;;;5.00;;
4389;SDS011;2209;48.982;8.406;2023-08-12T06:18:27;6.30;;;5.80;;
4389;SDS011;2209;48.982;8.406;2023-08-12T06:20:49;6.43;;;5.37;;
4389;SDS011;2209;48.982;8.406;2023-08-12T06:23:12;4.97;;;4.57;;
4389;SDS011;2209;48.982;8.406;2023-08-12T06:25:34;6.07;;;5.50;;
4389;SDS011;2209;48.982;8.406;2023-08-12T06:27:57;5.10;;;4.60;;
4389;SDS011;2209;48.982;8.406;2023-08-12T06:30:19;5.70;;;5.20;;
4389;SDS011;2209;48.982;8.406;2023-08-12T06:32:41;5.90;;;5.40;;
4389;SDS011;2209;48.982;8.406;2023-08-12T06:35:04;5.90;;;5.13;;
4389;SDS011;2209;48.982;8.406;2023-08-12T06:37:26;5.60;;;5.10;;
4389;SDS011;2209;48.982;8.406;2023-08-12T06:39:50;5.47;;;4.97;;
4389;SDS011;2209;48.982;8.406;2023-08-12T06:42:12;5.63;;;4.67;;
4389;SDS011;2209;48.982;8.406;2023-08-12T06:44:35;8.37;;;5.47;;
4389;SDS011;2209;48.982;8.406;2023-08-12T06:46:57;6.83;;;6.20;;
4389;SDS011;2209;48.982;8.406;2023-08-12T06:49:19;5.67;;;5.27;;
4389;SDS011;2209;48.982;8.406;2023-08-12T06:51:41;7.77;;;5.60;;
4389;SDS011;2209;48.982;8.406;2023-08-12T06:54:04;5.00;;;4.63;;
4389;SDS011;2209;48.982;8.406;2023-08-12T06:56:27;6.03;;;5.50;;
4389;SDS011;2209;48.982;8.406;2023-08-12T06:58:52;5.67;;;5.07;;
4389;SDS011;2209;48.982;8.406;2023-08-12T07:01:16;5.20;;;4.80;;
4389;SDS011;2209;48.982;8.406;2023-08-12T07:03:38;6.27;;;5.63;;
4389;SDS011;2209;48.982;8.406;2023-08-12T07:06:01;5.20;;;4.80;;
4389;SDS011;2209;48.982;8.406;2023-08-12T07:08:23;6.20;;;5.60;;
4389;SDS011;2209;48.982;8.406;2023-08-12T07:10:45;7.87;;;5.60;;
4389;SDS011;2209;48.982;8.406;2023-08-12T07:13:08;6.73;;;5.13;;
4389;SDS011;2209;48.982;8.406;2023-08-12T07:15:30;6.93;;;6.23;;
4389;SDS011;2209;48.982;8.406;2023-08-12T07:17:52;6.00;;;5.40;;
4389;SDS011;2209;48.982;8.406;2023-08-12T07:20:15;7.07;;;4.87;;
4389;SDS011;2209;48.982;8.406;2023-08-12T07:22:37;6.93;;;5.43;;
4389;SDS011;2209;48.982;8.406;2023-08-12T07:24:59;7.40;;;6.00;;
4389;SDS011;2209;48.982;8.406;2023-08-12T07:27:21;6.37;;;5.83;;
4389;SDS011;2209;48.982;8.406;2023-08-12T07:29:44;8.80;;;4.80;;
4389;SDS011;2209;48.982;8.406;2023-08-12T07:32:07;9.17;;;6.30;;
4389;SDS011;2209;48.982;8.406;2023-08-12T07:34:29;6.23;;;5.70;;
4389;SDS011;2209;48.982;8.406;2023-08-12T07:36:51;6.80;;;6.13;;
4389;SDS011;2209;48.982;8.406;2023-08-12T07:39:13;8.37;;;5.53;;
4389;SDS011;2209;48.982;8.406;2023-08-12T07:41:36;6.00;;;5.37;;
4389;SDS011;2209;48.982;8.406;2023-08-12T07:43:58;5.63;;;5.13;;
4389;SDS011;2209;48.982;8.406;2023-08-12T07:46:21;8.43;;;5.80;;
4389;SDS011;2209;48.982;8.406;2023-08-12T07:48:43;7.80;;;5.13;;
4389;SDS011;2209;48.982;8.406;2023-08-12T07:51:05;6.70;;;6.10;;
4389;SDS011;2209;48.982;8.406;2023-08-12T07:53:27;6.70;;;6.10;;
4389;SDS011;2209;48.982;8.406;2023-08-12T07:55:49;5.50;;;5.10;;
4389;SDS011;2209;48.982;8.406;2023-08-12T07:58:12;6.70;;;6.07;;
4389;SDS011;2209;48.982;8.406;2023-08-12T08:00:34;5.97;;;5.40;;
4389;SDS011;2209;48.982;8.406;2023-08-12T08:02:58;5.43;;;5.03;;
4389;SDS011;2209;48.982;8.406;2023-08-12T08:05:20;8.33;;;6.20;;
4389;SDS011;2209;48.982;8.406;2023-08-12T08:07:42;7.20;;;6.00;;
4389;SDS011;2209;48.982;8.406;2023-08-12T08:10:05;6.40;;;5.80;;
4389;SDS011;2209;48.982;8.406;2023-08-12T08:12:27;9.37;;;6.17;;
4389;SDS011;2209;48.982;8.406;2023-08-12T08:14:50;6.10;;;5.53;;
4389;SDS011;2209;48.982;8.406;2023-08-12T08:17:12;5.70;;;5.30;;
4389;SDS011;2209;48.982;8.406;2023-08-12T08:19:35;6.60;;;5.77;;
4389;SDS011;2209;48.982;8.406;2023-08-12T08:21:57;7.17;;;5.63;;
4389;SDS011;2209;48.982;8.406;2023-08-12T08:24:19;7.20;;;5.90;;
4389;SDS011;2209;48.982;8.406;2023-08-12T08:26:41;6.30;;;5.80;;
4389;SDS011;2209;48.982;8.406;2023-08-12T08:29:06;9.70;;;6.80;;
4389;SDS011;2209;48.982;8.406;2023-08-12T08:31:28;6.97;;;6.43;;
4389;SDS011;2209;48.982;8.406;2023-08-12T08:33:50;6.77;;;6.07;;
4389;SDS011;2209;48.982;8.406;2023-08-12T08:36:13;6.13;;;5.63;;
4389;SDS011;2209;48.982;8.406;2023-08-12T08:38:37;8.97;;;5.63;;
4389;SDS011;2209;48.982;8.406;2023-08-12T08:40:59;7.93;;;5.20;;
4389;SDS011;2209;48.982;8.406;2023-08-12T08:43:22;8.10;;;6.70;;
4389;SDS011;2209;48.982;8.406;2023-08-12T08:45:45;5.90;;;5.30;;
4389;SDS011;2209;48.982;8.406;2023-08-12T08:48:07;5.93;;;5.50;;
4389;SDS011;2209;48.982;8.406;2023-08-12T08:50:31;6.80;;;4.93;;
4389;SDS011;2209;48.982;8.406;2023-08-12T08:52:55;6.57;;;5.80;;
4389;SDS011;2209;48.982;8.406;2023-08-12T08:55:17;6.57;;;5.90;;
4389;SDS011;2209;48.982;8.406;2023-08-12T08:57:41;6.67;;;5.97;;
4389;SDS011;2209;48.982;8.406;2023-08-12T09:00:05;6.30;;;5.80;;
4389;SDS011;2209;48.982;8.406;2023-08-12T09:02:30;5.73;;;5.33;;
4389;SDS011;2209;48.982;8.406;2023-08-12T09:04:52;6.13;;;5.67;;
4389;SDS011;2209;48.982;8.406;2023-08-12T09:07:16;9.50;;;5.10;;
4389;SDS011;2209;48.982;8.406;2023-08-12T09:09:40;6.20;;;5.60;;
4389;SDS011;2209;48.982;8.406;2023-08-12T09:12:06;6.57;;;6.07;;
4389;SDS011;2209;48.982;8.406;2023-08-12T09:14:29;6.63;;;6.03;;
4389;SDS011;2209;48.982;8.406;2023-08-12T09:16:51;6.27;;;5.70;;
4389;SDS011;2209;48.982;8.406;2023-08-12T09:19:13;8.03;;;5.60;;
4389;SDS011;2209;48.982;8.406;2023-08-12T09:21:35;6.70;;;6.20;;
4389;SDS011;2209;48.982;8.406;2023-08-12T09:23:58;7.87;;;5.57;;
4389;SDS011;2209;48.982;8.406;2023-08-12T09:26:26;6.43;;;5.83;;
4389;SDS011;2209;48.982;8.406;2023-08-12T09:28:49;5.93;;;5.53;;
4389;SDS011;2209;48.982;8.406;2023-08-12T09:31:21;5.67;;;5.17;;
4389;SDS011;2209;48.982;8.406;2023-08-12T09:33:45;7.07;;;5.97;;
4389;SDS011;2209;48.982;8.406;2023-08-12T09:36:07;6.37;;;5.87;;
4389;SDS011;2209;48.982;8.406;2023-08-12T09:38:29;6.27;;;5.67;;
4389;SDS011;2209;48.982;8.406;2023-08-12T09:40:53;5.70;;;5.27;;
4389;SDS011;2209;48.982;8.406;2023-08-12T09:43:16;5.90;;;5.40;;
4389;SDS011;2209;48.982;8.406;2023-08-12T09:45:38;5.50;;;5.03;;
4389;SDS011;2209;48.982;8.406;2023-08-12T09:48:00;10.03;;;6.87;;
4389;SDS011;2209;48.982;8.406;2023-08-12T09:50:24;9.20;;;6.27;;
4389;SDS011;2209;48.982;8.406;2023-08-12T09:52:47;6.50;;;5.97;;
4389;SDS011;2209;48.982;8.406;2023-08-12T09:55:09;6.07;;;5.40;;
4389;SDS011;2209;48.982;8.406;2023-08-12T09:57:36;5.70;;;5.30;;
4389;SDS011;2209;48.982;8.406;2023-08-12T10:00:06;6.60;;;6.00;;
4389;SDS011;2209;48.982;8.406;2023-08-12T10:02:33;7.40;;;5.63;;
4389;SDS011;2209;48.982;8.406;2023-08-12T10:04:55;6.60;;;5.90;;
4389;SDS011;2209;48.982;8.406;2023-08-12T10:07:19;8.57;;;7.00;;
4389;SDS011;2209;48.982;8.406;2023-08-12T10:09:42;6.10;;;4.97;;
4389;SDS011;2209;48.982;8.406;2023-08-12T10:12:05;6.63;;;5.17;;
4389;SDS011;2209;48.982;8.406;2023-08-12T10:14:29;6.50;;;5.90;;
4389;SDS011;2209;48.982;8.406;2023-08-12T10:16:52;5.73;;;5.23;;
4389;SDS011;2209;48.982;8.406;2023-08-12T10:19:15;5.63;;;5.10;;
4389;SDS011;2209;48.982;8.406;2023-08-12T10:21:38;5.53;;;5.13;;
4389;SDS011;2209;48.982;8.406;2023-08-12T10:24:01;6.50;;;5.90;;
4389;SDS011;2209;48.982;8.406;2023-08-12T10:26:25;9.30;;;5.80;;
4389;SDS011;2209;48.982;8.406;2023-08-12T10:28:48;7.30;;;6.33;;
4389;SDS011;2209;48.982;8.406;2023-08-12T10:31:11;6.60;;;5.37;;
4389;SDS011;2209;48.982;8.406;2023-08-12T10:33:36;6.67;;;5.10;;
4389;SDS011;2209;48.982;8.406;2023-08-12T10:35:59;6.60;;;5.90;;
4389;SDS011;2209;48.982;8.406;2023-08-12T10:38:21;5.73;;;5.23;;
4389;SDS011;2209;48.982;8.406;2023-08-12T10:40:46;5.93;;;5.43;;
4389;SDS011;2209;48.982;8.406;2023-08-12T10:43:08;6.90;;;5.50;;
4389;SDS011;2209;48.982;8.406;2023-08-12T10:45:42;6.30;;;5.67;;
4389;SDS011;2209;48.982;8.406;2023-08-12T10:48:15;6.13;;;5.33;;
4389;SDS011;2209;48.982;8.406;2023-08-12T10:50:44;5.80;;;5.30;;
4389;SDS011;2209;48.982;8.406;2023-08-12T10:53:20;5.90;;;5.40;;
4389;SDS011;2209;48.982;8.406;2023-08-12T10:55:50;5.83;;;4.57;;
4389;SDS011;2209;48.982;8.406;2023-08-12T10:58:23;6.03;;;5.30;;
4389;SDS011;2209;48.982;8.406;2023-08-12T11:00:47;9.23;;;5.30;;
4389;SDS011;2209;48.982;8.406;2023-08-12T11:03:14;6.10;;;5.50;;
4389;SDS011;2209;48.982;8.406;2023-08-12T11:05:37;5.07;;;4.60;;
4389;SDS011;2209;48.982;8.406;2023-08-12T11:08:00;6.03;;;4.87;;
4389;SDS011;2209;48.982;8.406;2023-08-12T11:10:26;7.07;;;4.77;;
4389;SDS011;2209;48.982;8.406;2023-08-12T11:12:53;6.70;;;5.60;;
4389;SDS011;2209;48.982;8.406;2023-08-12T11:15:16;6.10;;;5.10;;
4389;SDS011;2209;48.982;8.406;2023-08-12T11:17:40;6.23;;;5.60;;
4389;SDS011;2209;48.982;8.406;2023-08-12T11:20:04;6.20;;;5.60;;
4389;SDS011;2209;48.982;8.406;2023-08-12T11:22:31;6.63;;;5.70;;
4389;SDS011;2209;48.982;8.406;2023-08-12T11:24:56;6.43;;;5.83;;
4389;SDS011;2209;48.982;8.406;2023-08-12T11:27:18;6.93;;;6.23;;
4389;SDS011;2209;48.982;8.406;2023-08-12T11:29:40;7.60;;;6.13;;
4389;SDS011;2209;48.982;8.406;2023-08-12T11:32:03;8.40;;;5.60;;
4389;SDS011;2209;48.982;8.406;2023-08-12T11:34:26;6.77;;;6.00;;
4389;SDS011;2209;48.982;8.406;2023-08-12T11:36:48;6.13;;;5.60;;
4389;SDS011;2209;48.982;8.406;2023-08-12T11:39:10;6.33;;;5.83;;
4389;SDS011;2209;48.982;8.406;2023-08-12T11:41:34;6.07;;;5.57;;
4389;SDS011;2209;48.982;8.406;2023-08-12T11:43:56;7.83;;;6.80;;
4389;SDS011;2209;48.982;8.406;2023-08-12T11:46:18;7.27;;;6.10;;
4389;SDS011;2209;48.982;8.406;2023-08-12T11:48:42;10.83;;;6.07;;
4389;SDS011;2209;48.982;8.406;2023-08-12T11:51:05;7.07;;;6.37;;
4389;SDS011;2209;48.982;8.406;2023-08-12T11:53:27;5.97;;;5.30;;
4389;SDS011;2209;48.982;8.406;2023-08-12T11:55:49;6.93;;;6.10;;
4389;SDS011;2209;48.982;8.406;2023-08-12T11:58:14;6.77;;;6.07;;
4389;SDS011;2209;48.982;8.406;2023-08-12T12:00:39;7.03;;;6.43;;
4389;SDS011;2209;48.982;8.406;2023-08-12T12:03:01;6.70;;;6.03;;
4389;SDS011;2209;48.982;8.406;2023-08-12T12:05:27;6.90;;;6.40;;
4389;SDS011;2209;48.982;8.406;2023-08-12T12:07:50;6.60;;;6.00;;
4389;SDS011;2209;48.982;8.406;2023-08-12T12:10:13;6.47;;;5.97;;
4389;SDS011;2209;48.982;8.406;2023-08-12T12:12:39;7.00;;;6.40;;
4389;SDS011;2209;48.982;8.406;2023-08-12T12:15:03;6.40;;;5.90;;
4389;SDS011;2209;48.982;8.406;2023-08-12T12:17:26;8.03;;;6.97;;
4389;SDS011;2209;48.982;8.406;2023-08-12T12:19:51;11.17;;;6.00;;
4389;SDS011;2209;48.982;8.406;2023-08-12T12:22:14;5.97;;;5.37;;
4389;SDS011;2209;48.982;8.406;2023-08-12T12:24:46;6.20;;;5.70;;
4389;SDS011;2209;48.982;8.406;2023-08-12T12:27:08;6.60;;;6.10;;
4389;SDS011;2209;48.982;8.406;2023-08-12T12:29:31;9.10;;;7.17;;
4389;SDS011;2209;48.982;8.406;2023-08-12T12:31:54;6.57;;;5.97;;
4389;SDS011;2209;48.982;8.406;2023-08-12T12:34:16;6.77;;;6.13;;
4389;SDS011;2209;48.982;8.406;2023-08-12T12:36:38;8.73;;;5.53;;
4389;SDS011;2209;48.982;8.406;2023-08-12T12:39:01;7.40;;;6.73;;
4389;SDS011;2209;48.982;8.406;2023-08-12T12:41:23;6.80;;;6.10;;
4389;SDS011;2209;48.982;8.406;2023-08-12T12:43:45;6.20;;;5.80;;
4389;SDS011;2209;48.982;8.406;2023-08-12T12:46:07;6.70;;;6.10;;
4389;SDS011;2209;48.982;8.406;2023-08-12T12:48:31;6.80;;;6.13;;
4389;SDS011;2209;48.982;8.406;2023-08-12T12:50:53;6.20;;;5.73;;
4389;SDS011;2209;48.982;8.406;2023-08-12T12:53:15;6.30;;;5.70;;
4389;SDS011;2209;48.982;8.406;2023-08-12T12:55:37;6.07;;;5.50;;
4389;SDS011;2209;48.982;8.406;2023-08-12T12:57:59;5.83;;;5.40;;
4389;SDS011;2209;48.982;8.406;2023-08-12T13:00:26;6.60;;;6.00;;
4389;SDS011;2209;48.982;8.406;2023-08-12T13:02:48;5.67;;;5.17;;
4389;SDS011;2209;48.982;8.406;2023-08-12T13:05:12;5.77;;;5.30;;
4389;SDS011;2209;48.982;8.406;2023-08-12T13:07:34;4.70;;;4.30;;
4389;SDS011;2209;48.982;8.406;2023-08-12T13:09:56;5.60;;;4.80;;
4389;SDS011;2209;48.982;8.406;2023-08-12T13:12:18;6.77;;;4.63;;
4389;SDS011;2209;48.982;8.406;2023-08-12T13:14:40;5.80;;;5.30;;
4389;SDS011;2209;48.982;8.406;2023-08-12T13:17:02;4.40;;;4.07;;
4389;SDS011;2209;48.982;8.406;2023-08-12T13:19:24;5.10;;;4.60;;
4389;SDS011;2209;48.982;8.406;2023-08-12T13:21:48;7.30;;;5.13;;
4389;SDS011;2209;48.982;8.406;2023-08-12T13:24:10;5.83;;;5.37;;
4389;SDS011;2209;48.982;8.406;2023-08-12T13:26:32;5.10;;;4.70;;
4389;SDS011;2209;48.982;8.406;2023-08-12T13:28:54;4.97;;;4.60;;
4389;SDS011;2209;48.982;8.406;2023-08-12T13:31:16;5.20;;;4.70;;
4389;SDS011;2209;48.982;8.406;2023-08-12T13:33:38;5.80;;;5.00;;
4389;SDS011;2209;48.982;8.406;2023-08-12T13:36:00;7.57;;;4.80;;
4389;SDS011;2209;48.982;8.406;2023-08-12T13:38:24;6.13;;;4.40;;
4389;SDS011;2209;48.982;8.406;2023-08-12T13:40:46;6.07;;;4.27;;
4389;SDS011;2209;48.982;8.406;2023-08-12T13:43:08;7.60;;;4.60;;
4389;SDS011;2209;48.982;8.406;2023-08-12T13:45:30;5.20;;;4.80;;
4389;SDS011;2209;48.982;8.406;2023-08-12T13:47:52;5.20;;;4.70;;
4389;SDS011;2209;48.982;8.406;2023-08-12T13:50:14;8.70;;;5.03;;
4389;SDS011;2209;48.982;8.406;2023-08-12T13:52:36;4.97;;;4.57;;
4389;SDS011;2209;48.982;8.406;2023-08-12T13:54:59;5.00;;;4.60;;
4389;SDS011;2209;48.982;8.406;2023-08-12T13:57:22;4.50;;;4.10;;
4389;SDS011;2209;48.982;8.406;2023-08-12T13:59:51;6.57;;;4.37;;
4389;SDS011;2209;48.982;8.406;2023-08-12T14:02:14;6.27;;;5.13;;
4389;SDS011;2209;48.982;8.406;2023-08-12T14:04:36;4.90;;;4.40;;
4389;SDS011;2209;48.982;8.406;2023-08-12T14:06:58;4.90;;;4.50;;
4389;SDS011;2209;48.982;8.406;2023-08-12T14:09:21;4.70;;;4.30;;
4389;SDS011;2209;48.982;8.406;2023-08-12T14:11:44;6.03;;;5.43;;
4389;SDS011;2209;48.982;8.406;2023-08-12T14:14:06;5.20;;;4.73;;
4389;SDS011;2209;48.982;8.406;2023-08-12T14:16:28;5.90;;;5.40;;
4389;SDS011;2209;48.982;8.406;2023-08-12T14:18:50;4.90;;;4.40;;
4389;SDS011;2209;48.982;8.406;2023-08-12T14:21:12;5.57;;;5.13;;
4389;SDS011;2209;48.982;8.406;2023-08-12T14:23:34;5.67;;;5.20;;
4389;SDS011;2209;48.982;8.406;2023-08-12T14:25:56;5.20;;;4.80;;
4389;SDS011;2209;48.982;8.406;2023-08-12T14:28:20;5.60;;;5.10;;
4389;SDS011;2209;48.982;8.406;2023-08-12T14:30:42;5.80;;;5.40;;
4389;SDS011;2209;48.982;8.406;2023-08-12T14:33:04;5.53;;;5.13;;
4389;SDS011;2209;48.982;8.406;2023-08-12T14:35:27;6.17;;;5.63;;
4389;SDS011;2209;48.982;8.406;2023-08-12T14:37:49;6.07;;;5.57;;
4389;SDS011;2209;48.982;8.406;2023-08-12T14:40:11;5.47;;;4.97;;
4389;SDS011;2209;48.982;8.406;2023-08-12T14:42:33;6.30;;;5.80;;
4389;SDS011;2209;48.982;8.406;2023-08-12T14:44:57;7.87;;;6.13;;
4389;SDS011;2209;48.982;8.406;2023-08-12T14:47:19;5.97;;;5.47;;
4389;SDS011;2209;48.982;8.406;2023-08-12T14:49:41;7.20;;;6.50;;